sensor_id;sensor_type;location;lat;lon;timestamp;temperature;humidity
52267;DHT22;38223;50.940;4.034;2022-08-21T00:01:44;20.00;99.90
52267;DHT22;38223;50.940;4.034;2022-08-21T00:04:14;20.00;99.90
52267;DHT22;38223;50.940;4.034;2022-08-21T00:06:47;19.90;99.90
52267;DHT22;38223;50.940;4.034;2022-08-21T00:09:22;20.00;99.90
52267;DHT22;38223;50.940;4.034;2022-08-21T00:11:52;20.10;99.90
52267;DHT22;38223;50.940;4.034;2022-08-21T00:14:23;19.90;99.90
52267;DHT22;38223;50.940;4.034;2022-08-21T00:16:58;20.00;99.90
52267;DHT22;38223;50.940;4.034;2022-08-21T00:19:29;20.00;99.90
52267;DHT22;38223;50.940;4.034;2022-08-21T00:22:03;19.90;99.90
52267;DHT22;38223;50.940;4.034;2022-08-21T00:24:37;19.80;99.90
52267;DHT22;38223;50.940;4.034;2022-08-21T00:27:09;19.60;99.90
52267;DHT22;38223;50.940;4.034;2022-08-21T00:29:41;19.30;99.90
52267;DHT22;38223;50.940;4.034;2022-08-21T00:32:13;19.40;99.90
52267;DHT22;38223;50.940;4.034;2022-08-21T00:34:50;19.40;99.90
52267;DHT22;38223;50.940;4.034;2022-08-21T00:37:24;19.50;99.90
52267;DHT22;38223;50.940;4.034;2022-08-21T00:39:59;19.50;99.90
52267;DHT22;38223;50.940;4.034;2022-08-21T00:45:23;19.60;99.90
52267;DHT22;38223;50.940;4.034;2022-08-21T00:47:59;19.50;99.90
52267;DHT22;38223;50.940;4.034;2022-08-21T00:50:30;19.30;99.90
52267;DHT22;38223;50.940;4.034;2022-08-21T00:53:07;19.10;99.90
52267;DHT22;38223;50.940;4.034;2022-08-21T00:55:39;19.00;99.90
52267;DHT22;38223;50.940;4.034;2022-08-21T00:58:13;18.80;99.90
52267;DHT22;38223;50.940;4.034;2022-08-21T01:00:42;18.80;99.90
52267;DHT22;38223;50.940;4.034;2022-08-21T01:03:18;18.80;99.90
52267;DHT22;38223;50.940;4.034;2022-08-21T01:05:50;18.70;99.90
52267;DHT22;38223;50.940;4.034;2022-08-21T01:08:22;18.70;99.90
52267;DHT22;38223;50.940;4.034;2022-08-21T01:10:54;18.60;99.90
52267;DHT22;38223;50.940;4.034;2022-08-21T01:13:29;18.50;99.90
52267;DHT22;38223;50.940;4.034;2022-08-21T01:16:04;18.40;99.90
52267;DHT22;38223;50.940;4.034;2022-08-21T01:18:36;18.30;99.90
52267;DHT22;38223;50.940;4.034;2022-08-21T01:21:15;18.30;99.90
52267;DHT22;38223;50.940;4.034;2022-08-21T01:23:48;18.40;99.90
52267;DHT22;38223;50.940;4.034;2022-08-21T01:26:22;18.30;99.90
52267;DHT22;38223;50.940;4.034;2022-08-21T01:31:40;18.20;99.90
52267;DHT22;38223;50.940;4.034;2022-08-21T01:34:11;18.20;99.90
52267;DHT22;38223;50.940;4.034;2022-08-21T01:36:45;18.10;99.90
52267;DHT22;38223;50.940;4.034;2022-08-21T01:39:19;18.10;99.90
52267;DHT22;38223;50.940;4.034;2022-08-21T01:41:51;18.20;99.90
52267;DHT22;38223;50.940;4.034;2022-08-21T01:44:25;18.20;99.90
52267;DHT22;38223;50.940;4.034;2022-08-21T01:47:01;18.10;99.90
52267;DHT22;38223;50.940;4.034;2022-08-21T01:49:37;18.10;99.90
52267;DHT22;38223;50.940;4.034;2022-08-21T01:52:10;18.10;99.90
52267;DHT22;38223;50.940;4.034;2022-08-21T01:54:46;18.20;99.90
52267;DHT22;38223;50.940;4.034;2022-08-21T01:57:16;18.10;99.90
52267;DHT22;38223;50.940;4.034;2022-08-21T01:59:49;18.10;99.90
52267;DHT22;38223;50.940;4.034;2022-08-21T02:02:19;18.10;99.90
52267;DHT22;38223;50.940;4.034;2022-08-21T02:04:52;18.10;99.90
52267;DHT22;38223;50.940;4.034;2022-08-21T02:07:24;18.00;99.90
52267;DHT22;38223;50.940;4.034;2022-08-21T02:09:58;18.00;99.90
52267;DHT22;38223;50.940;4.034;2022-08-21T02:12:29;17.90;99.90
52267;DHT22;38223;50.940;4.034;2022-08-21T02:15:03;17.80;99.90
52267;DHT22;38223;50.940;4.034;2022-08-21T02:17:41;17.90;99.90
52267;DHT22;38223;50.940;4.034;2022-08-21T02:20:11;17.90;99.90
52267;DHT22;38223;50.940;4.034;2022-08-21T02:22:46;18.00;99.90
52267;DHT22;38223;50.940;4.034;2022-08-21T02:25:15;17.90;99.90
52267;DHT22;38223;50.940;4.034;2022-08-21T02:27:51;17.80;99.90
52267;DHT22;38223;50.940;4.034;2022-08-21T02:30:26;17.80;99.90
52267;DHT22;38223;50.940;4.034;2022-08-21T02:32:59;17.70;99.90
52267;DHT22;38223;50.940;4.034;2022-08-21T02:35:32;17.60;99.90
52267;DHT22;38223;50.940;4.034;2022-08-21T02:38:08;17.60;99.90
52267;DHT22;38223;50.940;4.034;2022-08-21T02:40:41;17.60;99.90
52267;DHT22;38223;50.940;4.034;2022-08-21T02:43:15;17.60;99.90
52267;DHT22;38223;50.940;4.034;2022-08-21T02:45:50;17.60;99.90
52267;DHT22;38223;50.940;4.034;2022-08-21T02:48:23;17.60;99.90
52267;DHT22;38223;50.940;4.034;2022-08-21T02:51:01;17.50;99.90
52267;DHT22;38223;50.940;4.034;2022-08-21T02:53:35;17.60;99.90
52267;DHT22;38223;50.940;4.034;2022-08-21T02:56:12;17.50;99.90
52267;DHT22;38223;50.940;4.034;2022-08-21T02:58:47;17.50;99.90
52267;DHT22;38223;50.940;4.034;2022-08-21T03:01:19;17.50;99.90
52267;DHT22;38223;50.940;4.034;2022-08-21T03:03:52;17.50;99.90
52267;DHT22;38223;50.940;4.034;2022-08-21T03:06:24;17.50;99.90
52267;DHT22;38223;50.940;4.034;2022-08-21T03:08:58;17.40;99.90
52267;DHT22;38223;50.940;4.034;2022-08-21T03:11:26;17.50;99.90
52267;DHT22;38223;50.940;4.034;2022-08-21T03:13:58;17.50;99.90
52267;DHT22;38223;50.940;4.034;2022-08-21T03:16:30;17.40;99.90
52267;DHT22;38223;50.940;4.034;2022-08-21T03:19:02;17.40;99.90
52267;DHT22;38223;50.940;4.034;2022-08-21T03:21:34;17.50;99.90
52267;DHT22;38223;50.940;4.034;2022-08-21T03:24:09;17.50;99.90
52267;DHT22;38223;50.940;4.034;2022-08-21T03:26:38;17.50;99.90
52267;DHT22;38223;50.940;4.034;2022-08-21T03:29:16;17.40;99.90
52267;DHT22;38223;50.940;4.034;2022-08-21T03:31:45;17.50;99.90
52267;DHT22;38223;50.940;4.034;2022-08-21T03:37:09;17.50;99.90
52267;DHT22;38223;50.940;4.034;2022-08-21T03:39:41;17.40;99.90
52267;DHT22;38223;50.940;4.034;2022-08-21T03:42:15;17.40;99.90
52267;DHT22;38223;50.940;4.034;2022-08-21T03:44:44;17.40;99.90
52267;DHT22;38223;50.940;4.034;2022-08-21T03:47:15;17.30;99.90
52267;DHT22;38223;50.940;4.034;2022-08-21T03:49:51;17.40;99.90
52267;DHT22;38223;50.940;4.034;2022-08-21T03:52:23;17.40;99.90
52267;DHT22;38223;50.940;4.034;2022-08-21T03:54:52;17.30;99.90
52267;DHT22;38223;50.940;4.034;2022-08-21T03:57:20;17.20;99.90
52267;DHT22;38223;50.940;4.034;2022-08-21T03:59:54;17.00;99.90
52267;DHT22;38223;50.940;4.034;2022-08-21T04:02:22;17.00;99.90
52267;DHT22;38223;50.940;4.034;2022-08-21T04:04:52;16.90;99.90
52267;DHT22;38223;50.940;4.034;2022-08-21T04:07:25;16.90;99.90
52267;DHT22;38223;50.940;4.034;2022-08-21T04:12:47;16.90;99.90
52267;DHT22;38223;50.940;4.034;2022-08-21T04:15:22;17.00;99.90
52267;DHT22;38223;50.940;4.034;2022-08-21T04:17:50;17.00;99.90
52267;DHT22;38223;50.940;4.034;2022-08-21T04:20:23;17.00;99.90
52267;DHT22;38223;50.940;4.034;2022-08-21T04:22:55;17.00;99.90
52267;DHT22;38223;50.940;4.034;2022-08-21T04:25:31;17.10;99.90
52267;DHT22;38223;50.940;4.034;2022-08-21T04:27:59;17.10;99.90
52267;DHT22;38223;50.940;4.034;2022-08-21T04:30:31;17.00;99.90
52267;DHT22;38223;50.940;4.034;2022-08-21T04:33:01;17.00;99.90
52267;DHT22;38223;50.940;4.034;2022-08-21T04:35:35;16.90;99.90
52267;DHT22;38223;50.940;4.034;2022-08-21T04:38:02;16.90;99.90
52267;DHT22;38223;50.940;4.034;2022-08-21T04:40:33;16.90;99.90
52267;DHT22;38223;50.940;4.034;2022-08-21T04:43:07;17.00;99.90
52267;DHT22;38223;50.940;4.034;2022-08-21T04:45:43;17.00;99.90
52267;DHT22;38223;50.940;4.034;2022-08-21T04:48:16;17.00;99.90
52267;DHT22;38223;50.940;4.034;2022-08-21T04:51:06;17.10;99.90
52267;DHT22;38223;50.940;4.034;2022-08-21T04:56:39;17.00;99.90
52267;DHT22;38223;50.940;4.034;2022-08-21T04:59:10;16.90;99.90
52267;DHT22;38223;50.940;4.034;2022-08-21T05:01:42;16.90;99.90
52267;DHT22;38223;50.940;4.034;2022-08-21T05:04:32;16.80;99.90
52267;DHT22;38223;50.940;4.034;2022-08-21T05:07:10;16.70;99.90
52267;DHT22;38223;50.940;4.034;2022-08-21T05:09:43;16.80;99.90
52267;DHT22;38223;50.940;4.034;2022-08-21T05:12:14;16.70;99.90
52267;DHT22;38223;50.940;4.034;2022-08-21T05:14:44;16.80;99.90
52267;DHT22;38223;50.940;4.034;2022-08-21T05:17:17;16.80;99.90
52267;DHT22;38223;50.940;4.034;2022-08-21T05:19:48;16.80;99.90
52267;DHT22;38223;50.940;4.034;2022-08-21T05:22:26;16.80;99.90
52267;DHT22;38223;50.940;4.034;2022-08-21T05:25:01;16.90;99.90
52267;DHT22;38223;50.940;4.034;2022-08-21T05:27:35;17.00;99.90
52267;DHT22;38223;50.940;4.034;2022-08-21T05:30:10;17.10;99.90
52267;DHT22;38223;50.940;4.034;2022-08-21T05:32:46;17.00;99.90
52267;DHT22;38223;50.940;4.034;2022-08-21T05:35:17;17.00;99.90
52267;DHT22;38223;50.940;4.034;2022-08-21T05:37:48;17.00;99.90
52267;DHT22;38223;50.940;4.034;2022-08-21T05:40:21;17.00;99.90
52267;DHT22;38223;50.940;4.034;2022-08-21T05:42:54;17.00;99.90
52267;DHT22;38223;50.940;4.034;2022-08-21T05:45:25;17.10;99.90
52267;DHT22;38223;50.940;4.034;2022-08-21T05:48:05;17.20;99.90
52267;DHT22;38223;50.940;4.034;2022-08-21T05:50:29;17.20;99.90
52267;DHT22;38223;50.940;4.034;2022-08-21T05:53:04;17.30;99.90
52267;DHT22;38223;50.940;4.034;2022-08-21T05:55:33;17.40;99.90
52267;DHT22;38223;50.940;4.034;2022-08-21T05:58:06;17.40;99.90
52267;DHT22;38223;50.940;4.034;2022-08-21T06:00:39;17.30;99.90
52267;DHT22;38223;50.940;4.034;2022-08-21T06:03:16;17.40;99.90
52267;DHT22;38223;50.940;4.034;2022-08-21T06:05:47;17.50;99.90
52267;DHT22;38223;50.940;4.034;2022-08-21T06:08:21;17.50;99.90
52267;DHT22;38223;50.940;4.034;2022-08-21T06:10:56;17.60;99.90
52267;DHT22;38223;50.940;4.034;2022-08-21T06:13:28;17.70;99.90
52267;DHT22;38223;50.940;4.034;2022-08-21T06:16:13;17.70;99.90
52267;DHT22;38223;50.940;4.034;2022-08-21T06:18:45;17.90;99.90
52267;DHT22;38223;50.940;4.034;2022-08-21T06:21:17;18.00;99.90
52267;DHT22;38223;50.940;4.034;2022-08-21T06:23:52;18.20;99.90
52267;DHT22;38223;50.940;4.034;2022-08-21T06:26:21;18.10;99.90
52267;DHT22;38223;50.940;4.034;2022-08-21T06:28:54;18.10;99.90
52267;DHT22;38223;50.940;4.034;2022-08-21T06:31:28;18.20;99.90
52267;DHT22;38223;50.940;4.034;2022-08-21T06:34:00;18.30;99.90
52267;DHT22;38223;50.940;4.034;2022-08-21T06:36:34;18.50;99.90
52267;DHT22;38223;50.940;4.034;2022-08-21T06:39:04;18.60;99.90
52267;DHT22;38223;50.940;4.034;2022-08-21T06:41:34;18.70;99.90
52267;DHT22;38223;50.940;4.034;2022-08-21T06:47:01;18.80;99.90
52267;DHT22;38223;50.940;4.034;2022-08-21T06:49:35;18.80;99.90
52267;DHT22;38223;50.940;4.034;2022-08-21T06:52:12;19.00;99.90
52267;DHT22;38223;50.940;4.034;2022-08-21T06:54:45;19.00;99.90
52267;DHT22;38223;50.940;4.034;2022-08-21T07:00:03;19.00;99.90
52267;DHT22;38223;50.940;4.034;2022-08-21T07:02:34;19.10;99.90
52267;DHT22;38223;50.940;4.034;2022-08-21T07:05:08;19.40;99.90
52267;DHT22;38223;50.940;4.034;2022-08-21T07:07:39;19.50;99.90
52267;DHT22;38223;50.940;4.034;2022-08-21T07:10:12;19.60;99.90
52267;DHT22;38223;50.940;4.034;2022-08-21T07:12:54;19.60;99.90
52267;DHT22;38223;50.940;4.034;2022-08-21T07:15:33;19.60;99.90
52267;DHT22;38223;50.940;4.034;2022-08-21T07:18:01;19.60;99.90
52267;DHT22;38223;50.940;4.034;2022-08-21T07:20:37;19.60;99.90
52267;DHT22;38223;50.940;4.034;2022-08-21T07:23:15;19.80;99.90
52267;DHT22;38223;50.940;4.034;2022-08-21T07:25:45;19.80;99.90
52267;DHT22;38223;50.940;4.034;2022-08-21T07:28:15;19.70;99.90
52267;DHT22;38223;50.940;4.034;2022-08-21T07:30:51;19.70;99.90
52267;DHT22;38223;50.940;4.034;2022-08-21T07:33:22;19.80;99.90
52267;DHT22;38223;50.940;4.034;2022-08-21T07:35:51;20.10;99.90
52267;DHT22;38223;50.940;4.034;2022-08-21T07:38:20;20.20;99.90
52267;DHT22;38223;50.940;4.034;2022-08-21T07:40:57;20.20;99.90
52267;DHT22;38223;50.940;4.034;2022-08-21T07:43:31;20.20;99.90
52267;DHT22;38223;50.940;4.034;2022-08-21T07:46:04;20.30;99.90
52267;DHT22;38223;50.940;4.034;2022-08-21T07:48:38;20.20;99.90
52267;DHT22;38223;50.940;4.034;2022-08-21T07:51:12;20.30;99.90
52267;DHT22;38223;50.940;4.034;2022-08-21T07:53:50;20.50;99.90
52267;DHT22;38223;50.940;4.034;2022-08-21T07:56:22;20.40;99.90
52267;DHT22;38223;50.940;4.034;2022-08-21T07:58:56;20.30;99.90
52267;DHT22;38223;50.940;4.034;2022-08-21T08:01:29;20.60;99.90
52267;DHT22;38223;50.940;4.034;2022-08-21T08:04:00;20.70;99.90
52267;DHT22;38223;50.940;4.034;2022-08-21T08:06:31;20.80;99.90
52267;DHT22;38223;50.940;4.034;2022-08-21T08:09:07;20.70;99.90
52267;DHT22;38223;50.940;4.034;2022-08-21T08:11:37;20.70;99.90
52267;DHT22;38223;50.940;4.034;2022-08-21T08:14:10;20.60;99.90
52267;DHT22;38223;50.940;4.034;2022-08-21T08:16:49;20.40;99.90
52267;DHT22;38223;50.940;4.034;2022-08-21T08:19:18;20.50;99.90
52267;DHT22;38223;50.940;4.034;2022-08-21T08:21:50;20.70;99.90
52267;DHT22;38223;50.940;4.034;2022-08-21T08:24:22;20.90;99.90
52267;DHT22;38223;50.940;4.034;2022-08-21T08:26:55;20.90;99.90
52267;DHT22;38223;50.940;4.034;2022-08-21T08:29:28;20.80;99.90
52267;DHT22;38223;50.940;4.034;2022-08-21T08:31:59;20.90;99.90
52267;DHT22;38223;50.940;4.034;2022-08-21T08:34:32;20.90;99.90
52267;DHT22;38223;50.940;4.034;2022-08-21T08:37:01;20.90;99.90
52267;DHT22;38223;50.940;4.034;2022-08-21T08:39:34;20.90;99.90
52267;DHT22;38223;50.940;4.034;2022-08-21T08:42:13;21.00;99.90
52267;DHT22;38223;50.940;4.034;2022-08-21T08:44:48;20.90;99.90
52267;DHT22;38223;50.940;4.034;2022-08-21T08:47:22;20.90;99.90
52267;DHT22;38223;50.940;4.034;2022-08-21T08:50:12;21.00;99.90
52267;DHT22;38223;50.940;4.034;2022-08-21T08:52:48;21.30;99.90
52267;DHT22;38223;50.940;4.034;2022-08-21T08:55:23;21.30;99.90
52267;DHT22;38223;50.940;4.034;2022-08-21T08:57:55;21.30;99.90
52267;DHT22;38223;50.940;4.034;2022-08-21T09:00:25;21.30;99.90
52267;DHT22;38223;50.940;4.034;2022-08-21T09:02:58;21.40;99.90
52267;DHT22;38223;50.940;4.034;2022-08-21T09:05:57;21.50;99.90
52267;DHT22;38223;50.940;4.034;2022-08-21T09:11:15;21.70;99.90
52267;DHT22;38223;50.940;4.034;2022-08-21T09:16:49;22.10;99.90
52267;DHT22;38223;50.940;4.034;2022-08-21T09:22:16;22.50;99.90
52267;DHT22;38223;50.940;4.034;2022-08-21T09:27:33;22.60;99.90
52267;DHT22;38223;50.940;4.034;2022-08-21T09:30:06;22.60;99.90
52267;DHT22;38223;50.940;4.034;2022-08-21T09:32:38;22.50;99.90
52267;DHT22;38223;50.940;4.034;2022-08-21T09:35:13;22.40;99.90
52267;DHT22;38223;50.940;4.034;2022-08-21T09:37:55;22.30;99.90
52267;DHT22;38223;50.940;4.034;2022-08-21T09:40:40;22.50;99.90
52267;DHT22;38223;50.940;4.034;2022-08-21T09:43:17;22.50;99.90
52267;DHT22;38223;50.940;4.034;2022-08-21T09:45:48;22.60;99.90
52267;DHT22;38223;50.940;4.034;2022-08-21T09:48:21;22.60;99.90
52267;DHT22;38223;50.940;4.034;2022-08-21T09:51:04;22.60;99.90
52267;DHT22;38223;50.940;4.034;2022-08-21T09:53:26;22.60;99.90
52267;DHT22;38223;50.940;4.034;2022-08-21T09:58:58;22.80;99.90
52267;DHT22;38223;50.940;4.034;2022-08-21T10:01:32;22.80;99.90
52267;DHT22;38223;50.940;4.034;2022-08-21T10:04:10;22.80;99.90
52267;DHT22;38223;50.940;4.034;2022-08-21T10:06:40;22.90;99.90
52267;DHT22;38223;50.940;4.034;2022-08-21T10:09:32;23.10;99.90
52267;DHT22;38223;50.940;4.034;2022-08-21T10:12:23;23.00;99.90
52267;DHT22;38223;50.940;4.034;2022-08-21T10:17:40;22.50;99.90
52267;DHT22;38223;50.940;4.034;2022-08-21T10:20:17;22.50;99.90
52267;DHT22;38223;50.940;4.034;2022-08-21T10:23:02;22.50;99.90
52267;DHT22;38223;50.940;4.034;2022-08-21T10:28:43;22.50;99.90
52267;DHT22;38223;50.940;4.034;2022-08-21T10:30:52;22.50;99.90
52267;DHT22;38223;50.940;4.034;2022-08-21T10:33:46;22.80;99.90
52267;DHT22;38223;50.940;4.034;2022-08-21T10:36:18;22.90;99.90
52267;DHT22;38223;50.940;4.034;2022-08-21T10:39:02;23.10;99.90
52267;DHT22;38223;50.940;4.034;2022-08-21T10:44:38;23.40;99.90
52267;DHT22;38223;50.940;4.034;2022-08-21T10:50:10;23.40;99.90
52267;DHT22;38223;50.940;4.034;2022-08-21T10:53:03;23.40;99.90
52267;DHT22;38223;50.940;4.034;2022-08-21T10:55:45;23.50;99.90
52267;DHT22;38223;50.940;4.034;2022-08-21T10:58:30;23.50;99.90
52267;DHT22;38223;50.940;4.034;2022-08-21T11:01:13;23.60;99.90
52267;DHT22;38223;50.940;4.034;2022-08-21T11:03:46;23.60;99.90
52267;DHT22;38223;50.940;4.034;2022-08-21T11:06:24;23.60;99.90
52267;DHT22;38223;50.940;4.034;2022-08-21T11:09:04;23.70;99.90
52267;DHT22;38223;50.940;4.034;2022-08-21T11:11:34;23.60;99.90
52267;DHT22;38223;50.940;4.034;2022-08-21T11:17:09;23.40;99.90
52267;DHT22;38223;50.940;4.034;2022-08-21T11:25:37;23.50;99.90
52267;DHT22;38223;50.940;4.034;2022-08-21T11:28:17;23.30;99.90
52267;DHT22;38223;50.940;4.034;2022-08-21T11:33:47;23.40;99.90
52267;DHT22;38223;50.940;4.034;2022-08-21T11:39:06;23.40;99.90
52267;DHT22;38223;50.940;4.034;2022-08-21T11:41:48;23.40;99.90
52267;DHT22;38223;50.940;4.034;2022-08-21T11:47:40;23.70;99.90
52267;DHT22;38223;50.940;4.034;2022-08-21T11:50:18;23.40;99.90
52267;DHT22;38223;50.940;4.034;2022-08-21T11:52:52;23.60;99.90
52267;DHT22;38223;50.940;4.034;2022-08-21T11:55:49;23.70;99.90
52267;DHT22;38223;50.940;4.034;2022-08-21T11:58:22;23.90;99.90
52267;DHT22;38223;50.940;4.034;2022-08-21T12:00:54;24.00;99.90
52267;DHT22;38223;50.940;4.034;2022-08-21T12:03:32;24.00;99.90
52267;DHT22;38223;50.940;4.034;2022-08-21T12:06:05;24.20;99.90
52267;DHT22;38223;50.940;4.034;2022-08-21T12:08:42;24.30;99.90
52267;DHT22;38223;50.940;4.034;2022-08-21T12:14:12;24.30;99.90
52267;DHT22;38223;50.940;4.034;2022-08-21T12:16:36;24.30;99.90
52267;DHT22;38223;50.940;4.034;2022-08-21T12:22:11;24.10;99.90
52267;DHT22;38223;50.940;4.034;2022-08-21T12:24:43;24.30;99.90
52267;DHT22;38223;50.940;4.034;2022-08-21T12:27:29;24.20;99.90
52267;DHT22;38223;50.940;4.034;2022-08-21T12:30:54;24.40;99.90
52267;DHT22;38223;50.940;4.034;2022-08-21T12:32:59;24.30;99.90
52267;DHT22;38223;50.940;4.034;2022-08-21T12:35:40;24.40;99.90
52267;DHT22;38223;50.940;4.034;2022-08-21T12:38:39;24.30;99.90
52267;DHT22;38223;50.940;4.034;2022-08-21T12:41:12;24.30;99.90
52267;DHT22;38223;50.940;4.034;2022-08-21T12:43:38;24.40;99.90
52267;DHT22;38223;50.940;4.034;2022-08-21T12:46:51;24.40;99.90
52267;DHT22;38223;50.940;4.034;2022-08-21T12:48:56;24.40;99.90
52267;DHT22;38223;50.940;4.034;2022-08-21T12:51:32;24.40;99.90
52267;DHT22;38223;50.940;4.034;2022-08-21T12:54:01;24.40;99.90
52267;DHT22;38223;50.940;4.034;2022-08-21T12:56:35;24.40;99.70
52267;DHT22;38223;50.940;4.034;2022-08-21T12:59:11;24.50;99.30
52267;DHT22;38223;50.940;4.034;2022-08-21T13:01:49;24.50;99.00
52267;DHT22;38223;50.940;4.034;2022-08-21T13:04:33;24.50;98.80
52267;DHT22;38223;50.940;4.034;2022-08-21T13:07:08;24.50;98.50
52267;DHT22;38223;50.940;4.034;2022-08-21T13:09:49;24.60;98.60
52267;DHT22;38223;50.940;4.034;2022-08-21T13:12:22;24.60;98.70
52267;DHT22;38223;50.940;4.034;2022-08-21T13:14:58;24.70;98.20
52267;DHT22;38223;50.940;4.034;2022-08-21T13:17:34;24.60;97.80
52267;DHT22;38223;50.940;4.034;2022-08-21T13:20:06;24.60;97.90
52267;DHT22;38223;50.940;4.034;2022-08-21T13:22:41;24.40;98.60
52267;DHT22;38223;50.940;4.034;2022-08-21T13:25:16;24.50;98.40
52267;DHT22;38223;50.940;4.034;2022-08-21T13:28:04;24.70;96.90
52267;DHT22;38223;50.940;4.034;2022-08-21T13:30:34;24.80;95.70
52267;DHT22;38223;50.940;4.034;2022-08-21T13:33:07;24.90;96.20
52267;DHT22;38223;50.940;4.034;2022-08-21T13:38:25;25.00;96.50
52267;DHT22;38223;50.940;4.034;2022-08-21T13:41:08;25.10;96.00
52267;DHT22;38223;50.940;4.034;2022-08-21T13:43:36;24.90;96.10
52267;DHT22;38223;50.940;4.034;2022-08-21T13:46:11;24.70;96.60
52267;DHT22;38223;50.940;4.034;2022-08-21T13:48:44;24.80;96.40
52267;DHT22;38223;50.940;4.034;2022-08-21T13:51:14;24.90;96.00
52267;DHT22;38223;50.940;4.034;2022-08-21T13:53:49;24.80;95.80
52267;DHT22;38223;50.940;4.034;2022-08-21T13:56:31;24.80;95.70
52267;DHT22;38223;50.940;4.034;2022-08-21T13:59:03;24.90;94.90
52267;DHT22;38223;50.940;4.034;2022-08-21T14:01:57;24.90;94.80
52267;DHT22;38223;50.940;4.034;2022-08-21T14:04:41;25.00;95.00
52267;DHT22;38223;50.940;4.034;2022-08-21T14:07:17;24.90;95.70
52267;DHT22;38223;50.940;4.034;2022-08-21T14:09:51;25.00;95.50
52267;DHT22;38223;50.940;4.034;2022-08-21T14:12:32;25.00;95.60
52267;DHT22;38223;50.940;4.034;2022-08-21T14:15:01;24.90;95.80
52267;DHT22;38223;50.940;4.034;2022-08-21T14:17:35;25.10;95.60
52267;DHT22;38223;50.940;4.034;2022-08-21T14:20:07;25.20;95.50
52267;DHT22;38223;50.940;4.034;2022-08-21T14:22:48;25.50;95.00
52267;DHT22;38223;50.940;4.034;2022-08-21T14:25:37;25.40;94.70
52267;DHT22;38223;50.940;4.034;2022-08-21T14:30:42;25.40;95.10
52267;DHT22;38223;50.940;4.034;2022-08-21T14:33:15;25.30;95.20
52267;DHT22;38223;50.940;4.034;2022-08-21T14:35:43;25.20;95.10
52267;DHT22;38223;50.940;4.034;2022-08-21T14:38:19;25.10;95.20
52267;DHT22;38223;50.940;4.034;2022-08-21T14:40:57;25.10;95.30
52267;DHT22;38223;50.940;4.034;2022-08-21T14:43:30;25.10;95.30
52267;DHT22;38223;50.940;4.034;2022-08-21T14:46:00;25.10;95.40
52267;DHT22;38223;50.940;4.034;2022-08-21T14:48:32;25.30;95.20
52267;DHT22;38223;50.940;4.034;2022-08-21T14:51:03;25.20;95.30
52267;DHT22;38223;50.940;4.034;2022-08-21T14:53:34;25.20;95.30
52267;DHT22;38223;50.940;4.034;2022-08-21T14:56:06;25.20;95.10
52267;DHT22;38223;50.940;4.034;2022-08-21T14:58:38;25.30;95.00
52267;DHT22;38223;50.940;4.034;2022-08-21T15:01:11;25.40;94.70
52267;DHT22;38223;50.940;4.034;2022-08-21T15:03:44;25.50;94.70
52267;DHT22;38223;50.940;4.034;2022-08-21T15:06:17;25.40;94.90
52267;DHT22;38223;50.940;4.034;2022-08-21T15:08:50;25.40;94.70
52267;DHT22;38223;50.940;4.034;2022-08-21T15:11:22;25.50;94.60
52267;DHT22;38223;50.940;4.034;2022-08-21T15:13:58;25.60;94.30
52267;DHT22;38223;50.940;4.034;2022-08-21T15:16:35;25.40;94.30
52267;DHT22;38223;50.940;4.034;2022-08-21T15:19:08;25.50;94.10
52267;DHT22;38223;50.940;4.034;2022-08-21T15:21:41;25.50;93.90
52267;DHT22;38223;50.940;4.034;2022-08-21T15:24:13;25.50;93.90
52267;DHT22;38223;50.940;4.034;2022-08-21T15:26:46;25.40;93.90
52267;DHT22;38223;50.940;4.034;2022-08-21T15:29:20;25.40;94.00
52267;DHT22;38223;50.940;4.034;2022-08-21T15:31:57;25.50;93.80
52267;DHT22;38223;50.940;4.034;2022-08-21T15:34:36;25.30;94.20
52267;DHT22;38223;50.940;4.034;2022-08-21T15:37:10;25.40;94.00
52267;DHT22;38223;50.940;4.034;2022-08-21T15:39:45;25.60;93.50
52267;DHT22;38223;50.940;4.034;2022-08-21T15:42:18;25.60;93.50
52267;DHT22;38223;50.940;4.034;2022-08-21T15:44:51;25.70;93.50
52267;DHT22;38223;50.940;4.034;2022-08-21T15:47:32;25.70;93.50
52267;DHT22;38223;50.940;4.034;2022-08-21T15:50:04;25.90;93.20
52267;DHT22;38223;50.940;4.034;2022-08-21T15:52:38;25.70;93.40
52267;DHT22;38223;50.940;4.034;2022-08-21T15:55:08;25.80;93.10
52267;DHT22;38223;50.940;4.034;2022-08-21T15:57:46;25.60;93.40
52267;DHT22;38223;50.940;4.034;2022-08-21T16:00:24;25.70;93.30
52267;DHT22;38223;50.940;4.034;2022-08-21T16:03:01;25.90;92.90
52267;DHT22;38223;50.940;4.034;2022-08-21T16:05:32;25.70;92.80
52267;DHT22;38223;50.940;4.034;2022-08-21T16:08:05;25.60;93.80
52267;DHT22;38223;50.940;4.034;2022-08-21T16:10:36;25.50;93.70
52267;DHT22;38223;50.940;4.034;2022-08-21T16:13:20;25.40;93.70
52267;DHT22;38223;50.940;4.034;2022-08-21T16:15:42;25.40;93.70
52267;DHT22;38223;50.940;4.034;2022-08-21T16:18:14;25.60;93.40
52267;DHT22;38223;50.940;4.034;2022-08-21T16:20:45;25.60;93.40
52267;DHT22;38223;50.940;4.034;2022-08-21T16:23:17;25.50;93.40
52267;DHT22;38223;50.940;4.034;2022-08-21T16:25:49;25.20;93.80
52267;DHT22;38223;50.940;4.034;2022-08-21T16:28:28;25.10;94.30
52267;DHT22;38223;50.940;4.034;2022-08-21T16:31:00;25.20;93.80
52267;DHT22;38223;50.940;4.034;2022-08-21T16:33:43;25.50;93.10
52267;DHT22;38223;50.940;4.034;2022-08-21T16:36:14;25.40;93.10
52267;DHT22;38223;50.940;4.034;2022-08-21T16:38:50;25.50;93.10
52267;DHT22;38223;50.940;4.034;2022-08-21T16:41:22;25.60;92.80
52267;DHT22;38223;50.940;4.034;2022-08-21T16:43:54;25.70;92.90
52267;DHT22;38223;50.940;4.034;2022-08-21T16:46:26;25.60;93.10
52267;DHT22;38223;50.940;4.034;2022-08-21T16:48:59;25.40;93.20
52267;DHT22;38223;50.940;4.034;2022-08-21T16:51:33;25.10;93.50
52267;DHT22;38223;50.940;4.034;2022-08-21T16:54:04;25.10;93.60
52267;DHT22;38223;50.940;4.034;2022-08-21T16:56:37;25.20;93.50
52267;DHT22;38223;50.940;4.034;2022-08-21T16:59:11;25.00;93.70
52267;DHT22;38223;50.940;4.034;2022-08-21T17:01:44;25.00;93.80
52267;DHT22;38223;50.940;4.034;2022-08-21T17:04:16;25.20;93.00
52267;DHT22;38223;50.940;4.034;2022-08-21T17:06:50;25.10;93.20
52267;DHT22;38223;50.940;4.034;2022-08-21T17:09:21;24.90;93.50
52267;DHT22;38223;50.940;4.034;2022-08-21T17:11:51;25.00;93.20
52267;DHT22;38223;50.940;4.034;2022-08-21T17:14:24;25.00;93.20
52267;DHT22;38223;50.940;4.034;2022-08-21T17:16:59;24.80;93.50
52267;DHT22;38223;50.940;4.034;2022-08-21T17:19:34;24.70;94.00
52267;DHT22;38223;50.940;4.034;2022-08-21T17:22:04;24.50;94.20
52267;DHT22;38223;50.940;4.034;2022-08-21T17:24:35;24.50;94.20
52267;DHT22;38223;50.940;4.034;2022-08-21T17:27:16;24.50;94.40
52267;DHT22;38223;50.940;4.034;2022-08-21T17:29:45;24.40;94.60